Time;durP1;ratioP1;P1;durP2;ratioP2;P2;SDS_P1;SDS_P2;PMS_P1;PMS_P2;Temp;Humidity;BMP_temperature;BMP_pressure;BME280_temperature;BME280_humidity;BME280_pressure;Samples;Min_cycle;Max_cycle;Signal;HPM_P1;HPM_P2
2021/07/11 00:01:47;;;;;;;12.90;11.40;;;;;;;;;;5074446;28;20037;-63
2021/07/11 00:04:32;;;;;;;11.85;10.38;;;;;;;;;;5075629;28;20052;-63
2021/07/11 00:07:18;;;;;;;14.35;12.18;;;;;;;;;;5075502;28;20045;-63
2021/07/11 00:10:04;;;;;;;18.45;11.90;;;;;;;;;;5075355;28;20491;-63
2021/07/11 00:12:51;;;;;;;16.88;12.77;;;;;;;;;;5073813;28;20040;-63
2021/07/11 00:15:36;;;;;;;14.43;12.20;;;;;;;;;;5074243;28;20044;-63
2021/07/11 00:18:21;;;;;;;14.75;12.60;;;;;;;;;;5075378;28;20163;-63
2021/07/11 00:21:07;;;;;;;15.43;12.05;;;;;;;;;;5075040;28;20673;-64
2021/07/11 00:23:52;;;;;;;13.70;12.30;;;;;;;;;;5074711;28;20048;-64
2021/07/11 00:26:38;;;;;;;16.85;12.73;;;;;;;;;;5075201;28;20536;-64
2021/07/11 00:29:23;;;;;;;15.15;12.15;;;;;;;;;;5075104;28;20552;-64
2021/07/11 00:32:08;;;;;;;16.60;12.43;;;;;;;;;;5075519;28;20067;-64
2021/07/11 00:34:54;;;;;;;14.25;12.52;;;;;;;;;;5075375;28;20052;-64
2021/07/11 00:37:40;;;;;;;14.88;12.57;;;;;;;;;;5075019;28;20040;-63
2021/07/11 00:40:25;;;;;;;14.32;12.82;;;;;;;;;;5075009;28;20160;-63
2021/07/11 00:43:13;;;;;;;17.88;13.30;;;;;;;;;;5074225;28;20055;-63
2021/07/11 00:45:58;;;;;;;17.58;13.07;;;;;;;;;;5073681;28;20040;-63
2021/07/11 00:48:43;;;;;;;15.63;13.50;;;;;;;;;;5075000;28;20056;-63
2021/07/11 00:51:29;;;;;;;17.52;13.50;;;;;;;;;;5045455;28;20516;-63
2021/07/11 00:54:15;;;;;;;17.60;13.63;;;;;;;;;;5058728;28;20127;-63
2021/07/11 00:57:01;;;;;;;19.83;12.82;;;;;;;;;;5088014;28;20040;-63
2021/07/11 00:59:47;;;;;;;15.90;13.68;;;;;;;;;;5074258;28;20044;-64
2021/07/11 01:02:33;;;;;;;18.80;14.13;;;;;;;;;;5074623;28;20048;-64
2021/07/11 01:05:19;;;;;;;16.15;13.07;;;;;;;;;;5086992;28;20115;-64
2021/07/11 01:08:27;;;;;;;14.95;13.10;;;;;;;;;;5045801;28;20101;-64
2021/07/11 01:11:13;;;;;;;16.88;13.52;;;;;;;;;;5087439;28;20044;-64
2021/07/11 01:14:00;;;;;;;20.17;14.32;;;;;;;;;;5058149;28;20403;-64
2021/07/11 01:16:47;;;;;;;15.50;13.40;;;;;;;;;;5074231;28;20071;-64
2021/07/11 01:19:39;;;;;;;17.20;14.10;;;;;;;;;;5058918;28;20048;-64
2021/07/11 01:22:25;;;;;;;16.45;13.43;;;;;;;;;;5073471;28;20127;-64
2021/07/11 01:25:12;;;;;;;16.70;13.88;;;;;;;;;;5055399;28;20159;-64
2021/07/11 01:27:57;;;;;;;18.25;13.48;;;;;;;;;;5058897;28;20521;-64
2021/07/11 01:30:42;;;;;;;17.20;14.27;;;;;;;;;;5074035;28;20514;-64
2021/07/11 01:33:29;;;;;;;19.88;13.95;;;;;;;;;;5045057;28;20123;-64
2021/07/11 01:36:16;;;;;;;17.60;14.07;;;;;;;;;;5065917;28;20094;-64
2021/07/11 01:39:04;;;;;;;18.88;14.90;;;;;;;;;;5073098;28;20190;-64
2021/07/11 01:41:57;;;;;;;16.85;13.95;;;;;;;;;;5074030;28;20510;-64
2021/07/11 01:44:42;;;;;;;16.80;14.02;;;;;;;;;;5073065;28;20470;-64
2021/07/11 01:47:28;;;;;;;16.02;12.68;;;;;;;;;;5038662;28;20049;-63
2021/07/11 01:50:18;;;;;;;16.08;13.20;;;;;;;;;;5051770;28;20417;-64
2021/07/11 01:53:05;;;;;;;14.88;12.75;;;;;;;;;;5038382;28;20055;-63
2021/07/11 01:55:50;;;;;;;19.00;13.65;;;;;;;;;;5043572;28;20060;-63
2021/07/11 01:58:36;;;;;;;14.50;12.18;;;;;;;;;;5064446;28;20050;-63
2021/07/11 02:01:21;;;;;;;15.48;13.60;;;;;;;;;;5073223;28;20045;-63
2021/07/11 02:04:15;;;;;;;14.68;13.10;;;;;;;;;;5058355;28;20054;-63
2021/07/11 02:07:02;;;;;;;15.05;11.90;;;;;;;;;;5063635;28;20131;-63
2021/07/11 02:09:47;;;;;;;15.73;13.55;;;;;;;;;;5057165;28;20047;-63
2021/07/11 02:12:41;;;;;;;13.65;12.10;;;;;;;;;;5057861;28;20501;-63
2021/07/11 02:15:29;;;;;;;18.45;13.27;;;;;;;;;;5058144;28;20478;-64
2021/07/11 02:18:16;;;;;;;16.77;12.65;;;;;;;;;;5069981;28;20045;-64
2021/07/11 02:21:08;;;;;;;13.03;11.77;;;;;;;;;;5072862;28;20068;-64
2021/07/11 02:23:53;;;;;;;14.48;11.85;;;;;;;;;;5069925;28;20071;-64
2021/07/11 02:26:39;;;;;;;15.35;12.02;;;;;;;;;;5055642;28;20171;-64
2021/07/11 02:29:33;;;;;;;16.05;12.57;;;;;;;;;;5071964;28;20049;-63
2021/07/11 02:32:19;;;;;;;13.77;12.32;;;;;;;;;;5073172;28;20085;-63
2021/07/11 02:35:05;;;;;;;16.48;13.55;;;;;;;;;;5072926;28;20059;-63
2021/07/11 02:37:50;;;;;;;16.60;13.48;;;;;;;;;;5071900;28;20071;-63
2021/07/11 02:40:39;;;;;;;14.63;12.65;;;;;;;;;;5058074;28;20498;-63
2021/07/11 02:43:24;;;;;;;13.55;11.40;;;;;;;;;;5043682;28;20592;-63
2021/07/11 02:46:11;;;;;;;15.20;11.90;;;;;;;;;;5072527;28;20056;-63
2021/07/11 02:48:56;;;;;;;15.77;11.73;;;;;;;;;;5053757;28;20502;-63
2021/07/11 02:51:46;;;;;;;14.35;12.27;;;;;;;;;;5071483;28;20621;-63
2021/07/11 02:54:33;;;;;;;12.10;10.82;;;;;;;;;;5071439;28;20040;-63
2021/07/11 02:57:20;;;;;;;14.50;11.18;;;;;;;;;;5070373;28;20519;-63
2021/07/11 03:00:07;;;;;;;16.30;13.05;;;;;;;;;;5057238;28;20051;-63
2021/07/11 03:02:57;;;;;;;16.77;12.98;;;;;;;;;;5072408;28;20588;-63
2021/07/11 03:05:52;;;;;;;17.58;14.07;;;;;;;;;;5057153;28;20053;-64
2021/07/11 03:08:38;;;;;;;16.90;14.70;;;;;;;;;;5045426;28;20040;-64
2021/07/11 03:11:33;;;;;;;14.57;12.75;;;;;;;;;;5072067;28;20041;-64
2021/07/11 03:14:19;;;;;;;15.88;13.40;;;;;;;;;;5071011;28;20052;-64
2021/07/11 03:17:08;;;;;;;16.58;12.82;;;;;;;;;;5071034;28;20418;-64
2021/07/11 03:19:54;;;;;;;18.67;13.50;;;;;;;;;;5058937;28;20083;-64
2021/07/11 03:22:42;;;;;;;16.38;13.07;;;;;;;;;;5071380;28;20478;-63
2021/07/11 03:25:28;;;;;;;17.40;13.45;;;;;;;;;;5057207;28;20059;-63
2021/07/11 03:28:19;;;;;;;16.25;12.60;;;;;;;;;;5084407;28;20091;-63
2021/07/11 03:31:06;;;;;;;23.02;15.30;;;;;;;;;;5070852;28;20044;-64
2021/07/11 03:33:53;;;;;;;15.77;12.88;;;;;;;;;;5070893;28;20509;-63
2021/07/11 03:36:38;;;;;;;15.45;13.73;;;;;;;;;;5071094;28;20127;-63
2021/07/11 03:39:38;;;;;;;16.08;14.00;;;;;;;;;;5070872;28;20068;-63
2021/07/11 03:42:25;;;;;;;19.52;14.50;;;;;;;;;;5071309;28;20110;-63
2021/07/11 03:45:11;;;;;;;17.15;14.95;;;;;;;;;;5057103;28;20516;-63
2021/07/11 03:48:08;;;;;;;18.95;14.30;;;;;;;;;;5110902;22;20082;-64
2021/07/11 03:50:57;;;;;;;20.20;15.77;;;;;;;;;;5089568;28;20131;-64
2021/07/11 03:53:42;;;;;;;18.92;13.93;;;;;;;;;;5107876;28;20069;-64
2021/07/11 03:56:28;;;;;;;18.95;14.18;;;;;;;;;;5093900;28;20039;-65
2021/07/11 03:59:13;;;;;;;17.35;14.20;;;;;;;;;;5109974;28;20046;-64
2021/07/11 04:01:59;;;;;;;18.25;14.15;;;;;;;;;;5071866;28;20071;-64
2021/07/11 04:04:44;;;;;;;18.85;15.30;;;;;;;;;;5072722;28;20052;-65
2021/07/11 04:07:29;;;;;;;21.55;16.60;;;;;;;;;;5111296;28;20044;-64
2021/07/11 04:10:14;;;;;;;19.45;15.82;;;;;;;;;;5110917;28;20100;-65
2021/07/11 04:13:00;;;;;;;18.38;15.23;;;;;;;;;;5109015;28;20065;-65
2021/07/11 04:15:48;;;;;;;18.98;15.75;;;;;;;;;;5110021;28;20036;-64
2021/07/11 04:18:38;;;;;;;19.20;15.70;;;;;;;;;;5108165;28;20071;-65
2021/07/11 04:21:24;;;;;;;18.83;16.25;;;;;;;;;;5111857;28;20044;-64
2021/07/11 04:24:09;;;;;;;21.83;16.23;;;;;;;;;;5112063;28;20504;-64
2021/07/11 04:26:55;;;;;;;23.65;16.65;;;;;;;;;;5106328;28;20502;-65
2021/07/11 04:29:40;;;;;;;18.52;15.40;;;;;;;;;;5109040;28;20497;-65
2021/07/11 04:32:26;;;;;;;19.92;15.77;;;;;;;;;;5080627;28;20043;-64
2021/07/11 04:35:11;;;;;;;16.98;14.73;;;;;;;;;;5113612;28;20067;-64
2021/07/11 04:37:57;;;;;;;16.33;14.05;;;;;;;;;;5115588;28;20508;-65
2021/07/11 04:40:42;;;;;;;20.23;14.57;;;;;;;;;;5115508;28;20040;-64
2021/07/11 04:43:27;;;;;;;18.65;15.88;;;;;;;;;;5112260;28;20070;-65
2021/07/11 04:46:12;;;;;;;19.42;15.55;;;;;;;;;;5115492;28;20046;-64
2021/07/11 04:48:58;;;;;;;18.02;14.43;;;;;;;;;;5114386;28;20489;-64
2021/07/11 04:51:43;;;;;;;17.75;14.93;;;;;;;;;;5115309;28;20055;-65
2021/07/11 04:54:28;;;;;;;18.52;14.90;;;;;;;;;;5111985;28;20160;-64
2021/07/11 04:57:13;;;;;;;18.52;14.98;;;;;;;;;;5115364;28;20504;-65
2021/07/11 05:00:05;;;;;;;18.15;14.60;;;;;;;;;;5115038;28;20047;-64
2021/07/11 05:02:50;;;;;;;17.85;14.50;;;;;;;;;;5115250;28;20051;-64
2021/07/11 05:05:36;;;;;;;17.40;15.23;;;;;;;;;;5074521;28;20129;-64
2021/07/11 05:08:21;;;;;;;16.17;14.23;;;;;;;;;;5074421;28;20072;-64
2021/07/11 05:11:07;;;;;;;18.20;14.50;;;;;;;;;;5074358;28;20055;-65
2021/07/11 05:13:52;;;;;;;15.45;13.82;;;;;;;;;;5083182;28;20047;-65
2021/07/11 05:16:37;;;;;;;19.00;14.68;;;;;;;;;;5114770;28;20041;-65
2021/07/11 05:19:23;;;;;;;16.33;14.07;;;;;;;;;;5114961;28;20077;-65
2021/07/11 05:22:09;;;;;;;17.02;14.40;;;;;;;;;;5114837;28;20047;-65
2021/07/11 05:24:54;;;;;;;15.38;13.40;;;;;;;;;;5112601;28;20128;-65
2021/07/11 05:27:39;;;;;;;17.17;13.82;;;;;;;;;;5114621;28;20528;-65
2021/07/11 05:30:25;;;;;;;16.23;13.20;;;;;;;;;;5114414;28;20502;-65
2021/07/11 05:33:10;;;;;;;15.82;12.60;;;;;;;;;;5114629;28;20039;-65
2021/07/11 05:35:56;;;;;;;16.30;13.00;;;;;;;;;;5112378;28;20040;-65
2021/07/11 05:38:41;;;;;;;17.92;14.02;;;;;;;;;;5114591;28;20055;-65
2021/07/11 05:41:26;;;;;;;15.95;13.57;;;;;;;;;;5114266;28;20043;-65
2021/07/11 05:44:13;;;;;;;15.50;13.77;;;;;;;;;;5114527;28;20044;-65
2021/07/11 05:46:58;;;;;;;16.15;13.93;;;;;;;;;;5113421;28;20043;-65
2021/07/11 05:49:43;;;;;;;16.42;13.85;;;;;;;;;;5114089;28;20140;-65
2021/07/11 05:52:34;;;;;;;17.17;14.35;;;;;;;;;;5114070;28;20527;-65
2021/07/11 05:55:19;;;;;;;14.35;12.85;;;;;;;;;;5112003;28;20118;-65
2021/07/11 05:58:04;;;;;;;13.43;12.02;;;;;;;;;;5114062;28;20046;-65
2021/07/11 06:00:50;;;;;;;15.05;12.57;;;;;;;;;;5113703;28;20040;-65
2021/07/11 06:03:35;;;;;;;13.32;12.00;;;;;;;;;;5114218;28;20047;-65
2021/07/11 06:06:21;;;;;;;15.13;11.93;;;;;;;;;;5109370;28;20393;-65
2021/07/11 06:09:06;;;;;;;13.98;12.43;;;;;;;;;;5113783;28;20047;-65
2021/07/11 06:11:51;;;;;;;13.98;12.27;;;;;;;;;;5113848;28;20047;-65
2021/07/11 06:14:37;;;;;;;15.82;12.02;;;;;;;;;;5105881;28;20035;-65
2021/07/11 06:17:23;;;;;;;14.73;11.90;;;;;;;;;;5113758;28;20158;-65
2021/07/11 06:20:09;;;;;;;13.40;11.60;;;;;;;;;;5113381;28;20482;-66
2021/07/11 06:22:55;;;;;;;13.43;11.30;;;;;;;;;;5113651;28;20043;-64
2021/07/11 06:25:40;;;;;;;13.07;11.48;;;;;;;;;;5112261;28;20048;-65
2021/07/11 06:28:25;;;;;;;12.60;11.27;;;;;;;;;;5113602;28;20109;-65
2021/07/11 06:31:11;;;;;;;14.20;11.32;;;;;;;;;;5113255;28;20054;-65
2021/07/11 06:33:56;;;;;;;13.93;12.45;;;;;;;;;;5111058;28;20051;-65
2021/07/11 06:36:41;;;;;;;12.48;11.27;;;;;;;;;;5113472;28;20070;-65
2021/07/11 06:39:27;;;;;;;16.63;11.85;;;;;;;;;;5113069;28;20554;-65
2021/07/11 06:42:12;;;;;;;13.10;11.70;;;;;;;;;;5113262;28;20150;-65
2021/07/11 06:44:58;;;;;;;13.25;10.82;;;;;;;;;;5110696;28;20052;-65
2021/07/11 06:47:43;;;;;;;12.98;11.48;;;;;;;;;;5112876;28;20048;-65
2021/07/11 06:50:29;;;;;;;13.00;11.70;;;;;;;;;;5111368;28;20051;-64
2021/07/11 06:53:15;;;;;;;13.90;11.68;;;;;;;;;;5113061;28;20046;-65
2021/07/11 06:56:00;;;;;;;13.88;11.68;;;;;;;;;;5110863;28;20405;-65
2021/07/11 06:58:45;;;;;;;12.85;11.18;;;;;;;;;;5112691;28;20051;-65
2021/07/11 07:01:31;;;;;;;13.38;11.98;;;;;;;;;;5099100;28;20088;-65
2021/07/11 07:04:16;;;;;;;12.88;11.40;;;;;;;;;;5106154;28;20569;-65
2021/07/11 07:07:02;;;;;;;13.23;11.65;;;;;;;;;;5106865;28;20054;-65
2021/07/11 07:09:47;;;;;;;14.30;10.60;;;;;;;;;;5091567;28;20134;-65
2021/07/11 07:12:32;;;;;;;14.23;10.68;;;;;;;;;;5092351;28;20514;-65
2021/07/11 07:15:18;;;;;;;12.98;11.30;;;;;;;;;;5106046;28;20047;-65
2021/07/11 07:18:03;;;;;;;11.23;9.93;;;;;;;;;;5110626;28;20044;-65
2021/07/11 07:20:48;;;;;;;11.43;9.88;;;;;;;;;;5071867;28;20044;-65
2021/07/11 07:23:34;;;;;;;13.32;10.65;;;;;;;;;;5072709;28;20055;-65
2021/07/11 07:26:19;;;;;;;12.48;11.18;;;;;;;;;;5112593;28;20044;-65
2021/07/11 07:29:04;;;;;;;11.23;10.02;;;;;;;;;;5107505;28;20056;-65
2021/07/11 07:31:50;;;;;;;11.32;10.23;;;;;;;;;;5112546;28;20051;-65
2021/07/11 07:34:35;;;;;;;12.80;11.50;;;;;;;;;;5112394;28;20197;-65
2021/07/11 07:37:21;;;;;;;12.73;10.98;;;;;;;;;;5108911;28;20485;-65
2021/07/11 07:40:06;;;;;;;12.18;10.98;;;;;;;;;;5112443;28;20070;-65
2021/07/11 07:42:51;;;;;;;13.38;11.15;;;;;;;;;;5109100;28;20052;-65
2021/07/11 07:45:37;;;;;;;13.40;11.48;;;;;;;;;;5107914;28;20051;-65
2021/07/11 07:48:22;;;;;;;12.25;10.98;;;;;;;;;;5111611;28;20121;-65
2021/07/11 07:51:08;;;;;;;12.90;11.07;;;;;;;;;;5107284;28;20124;-65
2021/07/11 07:53:53;;;;;;;12.57;11.27;;;;;;;;;;5111439;28;20039;-65
2021/07/11 07:56:39;;;;;;;11.90;10.70;;;;;;;;;;5104249;28;20176;-65
2021/07/11 07:59:24;;;;;;;14.35;11.82;;;;;;;;;;5111262;28;20052;-65
2021/07/11 08:02:09;;;;;;;11.65;10.45;;;;;;;;;;5111577;28;20055;-65
2021/07/11 08:04:55;;;;;;;12.40;11.20;;;;;;;;;;5105410;28;20413;-65
2021/07/11 08:07:40;;;;;;;11.68;10.50;;;;;;;;;;5104823;28;20051;-65
2021/07/11 08:10:26;;;;;;;12.40;11.10;;;;;;;;;;5109100;28;20405;-65
2021/07/11 08:13:11;;;;;;;12.85;11.05;;;;;;;;;;5105274;28;20047;-66
2021/07/11 08:15:57;;;;;;;13.43;10.63;;;;;;;;;;5091512;28;20521;-64
2021/07/11 08:18:42;;;;;;;11.60;10.52;;;;;;;;;;5094349;28;20047;-65
2021/07/11 08:21:29;;;;;;;13.30;11.90;;;;;;;;;;5101806;28;20078;-67
2021/07/11 08:24:14;;;;;;;11.95;10.75;;;;;;;;;;5114609;28;20051;-65
2021/07/11 08:26:59;;;;;;;11.65;10.45;;;;;;;;;;5114424;28;20050;-65
2021/07/11 08:29:45;;;;;;;12.93;10.45;;;;;;;;;;5114531;28;20058;-65
2021/07/11 08:32:30;;;;;;;10.95;9.88;;;;;;;;;;5111456;28;20047;-66
2021/07/11 08:35:16;;;;;;;10.65;9.55;;;;;;;;;;5114467;28;20046;-65
2021/07/11 08:38:01;;;;;;;12.40;11.18;;;;;;;;;;5099803;28;20135;-66
2021/07/11 08:40:46;;;;;;;13.63;10.15;;;;;;;;;;5093066;28;20044;-66
2021/07/11 08:43:32;;;;;;;10.68;9.65;;;;;;;;;;5091299;28;20620;-66
2021/07/11 08:46:17;;;;;;;11.02;9.93;;;;;;;;;;5088649;28;20040;-65
2021/07/11 08:49:12;;;;;;;10.07;9.07;;;;;;;;;;5151107;27;20381;-65
2021/07/11 08:51:58;;;;;;;10.98;9.88;;;;;;;;;;5150506;27;20047;-64
2021/07/11 08:54:43;;;;;;;10.85;9.80;;;;;;;;;;5151181;27;20043;-64
2021/07/11 08:57:29;;;;;;;9.93;8.90;;;;;;;;;;5139949;27;20123;-65
2021/07/11 09:00:14;;;;;;;11.05;9.63;;;;;;;;;;5129992;28;20036;-66
2021/07/11 09:02:59;;;;;;;10.07;9.00;;;;;;;;;;5123174;28;20494;-64
2021/07/11 09:05:45;;;;;;;9.50;8.55;;;;;;;;;;5122938;28;20096;-65
2021/07/11 09:08:30;;;;;;;14.95;8.50;;;;;;;;;;5126392;27;20055;-65
2021/07/11 09:11:16;;;;;;;9.35;8.45;;;;;;;;;;5115921;28;20051;-65
2021/07/11 09:14:01;;;;;;;11.10;8.45;;;;;;;;;;5127924;28;20061;-65
2021/07/11 09:16:46;;;;;;;9.93;9.00;;;;;;;;;;5127457;27;20505;-65
2021/07/11 09:19:36;;;;;;;13.45;9.20;;;;;;;;;;5129509;28;20046;-65
2021/07/11 09:22:22;;;;;;;12.30;8.45;;;;;;;;;;5129612;28;20039;-65
2021/07/11 09:25:08;;;;;;;9.25;8.35;;;;;;;;;;5128546;28;20051;-65
2021/07/11 09:27:53;;;;;;;12.88;10.15;;;;;;;;;;5129407;27;20046;-65
2021/07/11 09:30:39;;;;;;;10.43;9.32;;;;;;;;;;5128365;28;20044;-66
2021/07/11 09:33:24;;;;;;;9.65;8.70;;;;;;;;;;5129313;28;20172;-65
2021/07/11 09:36:10;;;;;;;10.32;9.30;;;;;;;;;;5129209;28;20031;-65
2021/07/11 09:39:00;;;;;;;10.25;9.15;;;;;;;;;;5128499;28;20054;-65
2021/07/11 09:41:45;;;;;;;10.05;9.05;;;;;;;;;;5129539;28;20184;-65
2021/07/11 09:44:40;;;;;;;10.20;9.23;;;;;;;;;;5128138;28;20541;-65
2021/07/11 09:47:26;;;;;;;9.73;8.35;;;;;;;;;;5129135;28;20054;-65
2021/07/11 09:50:12;;;;;;;10.13;8.70;;;;;;;;;;5128834;28;20047;-65
2021/07/11 09:52:58;;;;;;;9.95;8.68;;;;;;;;;;5128320;28;20461;-65
2021/07/11 09:55:43;;;;;;;8.98;8.02;;;;;;;;;;5128816;28;20050;-65
2021/07/11 09:58:32;;;;;;;9.40;8.48;;;;;;;;;;5126613;28;20047;-65
2021/07/11 10:01:17;;;;;;;9.65;8.50;;;;;;;;;;5142185;27;20058;-65
2021/07/11 10:04:03;;;;;;;10.60;8.10;;;;;;;;;;5115194;28;20136;-65
2021/07/11 10:06:48;;;;;;;10.98;9.27;;;;;;;;;;5114162;28;20051;-65
2021/07/11 10:09:33;;;;;;;8.50;7.70;;;;;;;;;;5114805;28;20489;-65
2021/07/11 10:12:18;;;;;;;10.35;8.60;;;;;;;;;;5141978;27;20057;-64
2021/07/11 10:15:04;;;;;;;8.90;8.07;;;;;;;;;;5113176;28;20058;-65
2021/07/11 10:17:54;;;;;;;10.20;8.48;;;;;;;;;;5113822;28;20413;-65
2021/07/11 10:20:40;;;;;;;9.82;8.90;;;;;;;;;;5114581;28;20056;-64
2021/07/11 10:23:26;;;;;;;11.80;8.95;;;;;;;;;;5112362;28;20040;-65
2021/07/11 10:26:12;;;;;;;9.52;8.45;;;;;;;;;;5114492;27;20111;-65
2021/07/11 10:28:58;;;;;;;9.38;8.43;;;;;;;;;;5113677;28;20056;-65
2021/07/11 10:31:44;;;;;;;9.90;8.13;;;;;;;;;;5115881;27;20554;-65
2021/07/11 10:34:31;;;;;;;9.13;8.32;;;;;;;;;;5123164;27;20054;-65
2021/07/11 10:37:17;;;;;;;8.93;8.13;;;;;;;;;;5132686;27;20116;-65
2021/07/11 10:40:06;;;;;;;9.35;7.70;;;;;;;;;;5104524;28;20097;-65
2021/07/11 10:42:52;;;;;;;9.05;8.15;;;;;;;;;;5105704;28;20040;-66
2021/07/11 10:45:44;;;;;;;9.00;8.10;;;;;;;;;;5102974;28;20118;-65
2021/07/11 10:48:30;;;;;;;10.68;8.77;;;;;;;;;;5104263;28;20067;-66
2021/07/11 10:51:19;;;;;;;9.55;8.30;;;;;;;;;;5110490;28;20040;-65
2021/07/11 10:54:05;;;;;;;9.07;8.18;;;;;;;;;;5112350;27;20072;-64
2021/07/11 10:56:50;;;;;;;10.05;8.43;;;;;;;;;;5112889;28;20104;-65
2021/07/11 10:59:36;;;;;;;9.00;8.25;;;;;;;;;;5113905;28;20055;-65
2021/07/11 11:02:23;;;;;;;8.88;8.02;;;;;;;;;;5114196;28;20058;-65
2021/07/11 11:05:20;;;;;;;10.70;9.63;;;;;;;;;;5113974;28;20046;-65
2021/07/11 11:08:19;;;;;;;10.05;9.15;;;;;;;;;;5112817;28;20050;-64
2021/07/11 11:11:06;;;;;;;8.93;8.13;;;;;;;;;;5112332;28;20420;-65
2021/07/11 11:14:02;;;;;;;10.60;8.75;;;;;;;;;;5113970;28;20040;-65
2021/07/11 11:16:49;;;;;;;9.88;8.88;;;;;;;;;;5112888;28;20491;-65
2021/07/11 11:19:34;;;;;;;9.48;8.45;;;;;;;;;;5111373;28;20416;-65
2021/07/11 11:22:19;;;;;;;10.55;8.52;;;;;;;;;;5110350;28;20074;-65
2021/07/11 11:25:05;;;;;;;9.05;8.18;;;;;;;;;;5112679;28;20040;-65
2021/07/11 11:27:56;;;;;;;9.68;8.68;;;;;;;;;;5111484;28;20043;-65
2021/07/11 11:30:41;;;;;;;10.50;9.03;;;;;;;;;;5111621;28;20070;-65
2021/07/11 11:33:26;;;;;;;9.27;8.32;;;;;;;;;;5112662;28;20051;-65
2021/07/11 11:36:11;;;;;;;10.48;8.52;;;;;;;;;;5112456;28;20486;-65
2021/07/11 11:38:57;;;;;;;9.13;8.27;;;;;;;;;;5112393;28;20040;-65
2021/07/11 11:41:43;;;;;;;9.45;8.55;;;;;;;;;;5097955;28;20058;-65
2021/07/11 11:44:28;;;;;;;11.52;9.85;;;;;;;;;;5112484;28;20133;-65
2021/07/11 11:47:14;;;;;;;10.45;9.18;;;;;;;;;;5113277;28;20051;-65
2021/07/11 11:50:04;;;;;;;9.70;8.77;;;;;;;;;;5112893;28;20051;-65
2021/07/11 11:52:49;;;;;;;10.13;9.18;;;;;;;;;;5140805;27;20125;-65
2021/07/11 11:55:36;;;;;;;9.63;8.63;;;;;;;;;;5112939;28;20084;-65
2021/07/11 11:58:28;;;;;;;10.55;9.48;;;;;;;;;;5140635;27;20200;-65
2021/07/11 12:01:14;;;;;;;10.63;9.52;;;;;;;;;;5112137;28;20174;-65
2021/07/11 12:04:07;;;;;;;10.07;9.10;;;;;;;;;;5111296;28;20485;-65
2021/07/11 12:06:52;;;;;;;10.77;9.68;;;;;;;;;;5112854;28;20569;-65
2021/07/11 12:09:38;;;;;;;10.93;9.27;;;;;;;;;;5112291;28;20069;-64
2021/07/11 12:12:23;;;;;;;10.13;9.07;;;;;;;;;;5112803;28;20044;-65
2021/07/11 12:15:09;;;;;;;10.65;9.55;;;;;;;;;;5111939;28;20047;-65
2021/07/11 12:17:59;;;;;;;10.57;9.43;;;;;;;;;;5112733;28;20508;-65
2021/07/11 12:20:54;;;;;;;11.10;9.98;;;;;;;;;;5140142;27;20409;-65
2021/07/11 12:23:39;;;;;;;10.00;9.05;;;;;;;;;;5112495;28;20066;-65
2021/07/11 12:26:25;;;;;;;11.18;10.07;;;;;;;;;;5106903;28;20410;-65
2021/07/11 12:29:11;;;;;;;11.02;9.93;;;;;;;;;;5092110;28;20044;-65
2021/07/11 12:31:59;;;;;;;10.32;9.32;;;;;;;;;;5091960;28;20062;-65
2021/07/11 12:34:45;;;;;;;11.40;10.35;;;;;;;;;;5100148;28;20054;-65
2021/07/11 12:37:30;;;;;;;11.05;10.05;;;;;;;;;;5140175;27;20684;-65
2021/07/11 12:40:16;;;;;;;10.63;9.50;;;;;;;;;;5111172;28;20047;-65
2021/07/11 12:43:02;;;;;;;11.60;9.55;;;;;;;;;;5110882;28;20497;-65
2021/07/11 12:46:03;;;;;;;10.88;9.77;;;;;;;;;;5111488;28;20116;-65
2021/07/11 12:48:49;;;;;;;10.52;9.52;;;;;;;;;;5112034;28;20043;-65
2021/07/11 12:51:36;;;;;;;9.73;8.82;;;;;;;;;;5110836;28;20523;-66
2021/07/11 12:54:22;;;;;;;11.18;10.00;;;;;;;;;;5112241;28;20071;-65
2021/07/11 12:57:08;;;;;;;10.95;9.98;;;;;;;;;;5111400;28;20036;-65
2021/07/11 12:59:54;;;;;;;10.07;9.15;;;;;;;;;;5111958;28;20040;-65
2021/07/11 13:02:39;;;;;;;9.70;8.90;;;;;;;;;;5112050;28;20115;-65
2021/07/11 13:05:31;;;;;;;9.15;8.25;;;;;;;;;;5110321;28;20453;-65
2021/07/11 13:08:16;;;;;;;7.45;6.75;;;;;;;;;;5112321;28;20066;-65
2021/07/11 13:11:02;;;;;;;8.48;7.68;;;;;;;;;;5111757;28;20046;-65
2021/07/11 13:13:47;;;;;;;9.27;8.38;;;;;;;;;;5111213;28;20055;-67
2021/07/11 13:16:33;;;;;;;8.32;7.63;;;;;;;;;;5091887;28;20086;-65
2021/07/11 13:19:18;;;;;;;8.85;7.95;;;;;;;;;;5091613;28;20048;-65
2021/07/11 13:22:06;;;;;;;9.35;8.45;;;;;;;;;;5091430;28;20417;-65
2021/07/11 13:24:52;;;;;;;8.57;7.25;;;;;;;;;;5096295;28;20508;-66
2021/07/11 13:27:37;;;;;;;9.50;8.40;;;;;;;;;;5111141;28;20048;-65
2021/07/11 13:30:25;;;;;;;8.25;7.45;;;;;;;;;;5111863;28;20043;-65
2021/07/11 13:33:10;;;;;;;9.18;8.27;;;;;;;;;;5111680;28;20039;-66
2021/07/11 13:35:56;;;;;;;7.90;7.15;;;;;;;;;;5114121;28;20051;-67
2021/07/11 13:38:41;;;;;;;8.68;7.88;;;;;;;;;;5115629;28;20051;-65
2021/07/11 13:41:29;;;;;;;8.30;7.55;;;;;;;;;;5115542;28;20048;-65
2021/07/11 13:44:14;;;;;;;9.95;7.68;;;;;;;;;;5115616;28;20482;-65
2021/07/11 13:47:00;;;;;;;8.43;7.63;;;;;;;;;;5114771;28;20097;-65
2021/07/11 13:49:45;;;;;;;7.40;6.70;;;;;;;;;;5114743;28;20039;-65
2021/07/11 13:52:30;;;;;;;7.55;6.80;;;;;;;;;;5115364;28;20043;-65
2021/07/11 13:55:18;;;;;;;8.90;8.00;;;;;;;;;;5115233;28;20067;-65
2021/07/11 13:58:06;;;;;;;7.95;7.18;;;;;;;;;;5100316;27;20051;-65
2021/07/11 14:00:51;;;;;;;7.82;7.05;;;;;;;;;;5125049;27;20038;-65
2021/07/11 14:03:36;;;;;;;7.93;7.20;;;;;;;;;;5124683;27;20051;-65
2021/07/11 14:06:21;;;;;;;8.52;6.68;;;;;;;;;;5099568;27;20067;-66
2021/07/11 14:09:07;;;;;;;8.27;7.55;;;;;;;;;;5108511;27;20058;-65
2021/07/11 14:11:52;;;;;;;8.18;7.35;;;;;;;;;;5108594;27;20050;-65
2021/07/11 14:14:38;;;;;;;8.60;7.80;;;;;;;;;;5112535;27;20050;-65
2021/07/11 14:17:23;;;;;;;7.85;6.60;;;;;;;;;;5111387;27;20048;-66
2021/07/11 14:20:09;;;;;;;9.00;6.57;;;;;;;;;;5112118;27;20487;-66
2021/07/11 14:22:54;;;;;;;7.40;6.75;;;;;;;;;;5137536;27;20527;-66
2021/07/11 14:25:40;;;;;;;7.82;7.13;;;;;;;;;;5111811;28;20107;-65
2021/07/11 14:28:27;;;;;;;6.85;6.25;;;;;;;;;;5106523;27;20051;-66
2021/07/11 14:31:13;;;;;;;7.15;6.55;;;;;;;;;;5109002;28;20044;-66
2021/07/11 14:33:58;;;;;;;7.55;6.93;;;;;;;;;;5110424;27;20036;-65
2021/07/11 14:36:43;;;;;;;6.68;6.05;;;;;;;;;;5111264;28;20035;-66
2021/07/11 14:39:28;;;;;;;7.25;6.65;;;;;;;;;;5108442;27;20059;-65
2021/07/11 14:42:13;;;;;;;9.93;6.60;;;;;;;;;;5109463;28;20048;-65
2021/07/11 14:44:59;;;;;;;7.82;7.13;;;;;;;;;;5138207;27;20128;-65
2021/07/11 14:47:44;;;;;;;7.95;7.15;;;;;;;;;;5109924;28;20043;-65
2021/07/11 14:50:29;;;;;;;8.25;7.47;;;;;;;;;;5110234;28;20174;-65
2021/07/11 14:53:14;;;;;;;8.15;7.47;;;;;;;;;;5110201;27;20153;-65
2021/07/11 14:55:59;;;;;;;8.80;6.82;;;;;;;;;;5110510;28;20042;-65
2021/07/11 14:58:45;;;;;;;7.30;6.70;;;;;;;;;;5107622;27;20055;-65
2021/07/11 15:01:30;;;;;;;8.88;7.88;;;;;;;;;;5104479;28;20048;-65
2021/07/11 15:04:16;;;;;;;8.32;7.32;;;;;;;;;;5111941;27;20043;-65
2021/07/11 15:07:01;;;;;;;7.45;6.75;;;;;;;;;;5106715;28;20386;-65
2021/07/11 15:09:46;;;;;;;7.22;6.63;;;;;;;;;;5110651;27;20110;-66
2021/07/11 15:12:31;;;;;;;6.93;6.30;;;;;;;;;;5111636;28;20043;-65
2021/07/11 15:15:17;;;;;;;6.88;6.28;;;;;;;;;;5111790;27;20059;-65
2021/07/11 15:18:08;;;;;;;7.03;6.32;;;;;;;;;;5110196;28;20076;-65
2021/07/11 15:20:53;;;;;;;7.40;5.80;;;;;;;;;;5097966;27;20124;-65
2021/07/11 15:23:38;;;;;;;6.53;5.95;;;;;;;;;;5123188;27;20052;-65
2021/07/11 15:26:24;;;;;;;8.85;6.47;;;;;;;;;;5111095;28;20690;-65
2021/07/11 15:29:09;;;;;;;7.05;6.35;;;;;;;;;;5109851;27;20060;-66
2021/07/11 15:31:55;;;;;;;7.10;6.50;;;;;;;;;;5136980;27;20425;-65
2021/07/11 15:34:40;;;;;;;7.35;6.65;;;;;;;;;;5110493;28;20521;-66
2021/07/11 15:37:26;;;;;;;8.45;6.93;;;;;;;;;;5110751;28;20509;-65
2021/07/11 15:40:11;;;;;;;7.28;6.68;;;;;;;;;;5111049;27;20104;-65
2021/07/11 15:42:57;;;;;;;6.65;6.05;;;;;;;;;;5108092;28;20042;-66
2021/07/11 15:45:43;;;;;;;8.45;6.47;;;;;;;;;;5111457;27;20126;-65
2021/07/11 15:48:28;;;;;;;6.88;6.30;;;;;;;;;;5110194;28;20046;-65
2021/07/11 15:51:13;;;;;;;7.25;6.65;;;;;;;;;;5117629;27;20046;-65
2021/07/11 15:53:58;;;;;;;7.95;6.60;;;;;;;;;;5126960;27;20039;-65
2021/07/11 15:56:45;;;;;;;7.70;6.75;;;;;;;;;;5108073;28;20046;-65
2021/07/11 15:59:31;;;;;;;7.35;6.65;;;;;;;;;;5110048;27;20047;-65
2021/07/11 16:02:16;;;;;;;7.85;7.03;;;;;;;;;;5109661;28;20401;-65
2021/07/11 16:05:04;;;;;;;9.55;7.57;;;;;;;;;;5109872;27;20067;-65
2021/07/11 16:07:51;;;;;;;7.97;7.00;;;;;;;;;;5105471;28;20459;-65
2021/07/11 16:10:37;;;;;;;7.47;6.72;;;;;;;;;;5110656;27;20178;-65
2021/07/11 16:13:22;;;;;;;8.35;7.55;;;;;;;;;;5109846;28;20092;-65
2021/07/11 16:16:07;;;;;;;7.30;6.70;;;;;;;;;;5089828;27;20067;-65
2021/07/11 16:18:53;;;;;;;7.38;6.68;;;;;;;;;;5101264;28;20043;-65